createdAt,value
2018-05-26T00:00:27.191Z,46.88
2018-05-26T00:02:54.728Z,47.00
2018-05-26T00:05:22.556Z,47.29
2018-05-26T00:07:50.078Z,47.43
2018-05-26T00:10:17.610Z,47.48
2018-05-26T00:12:45.118Z,47.67
2018-05-26T00:15:12.644Z,47.73
2018-05-26T00:17:40.152Z,47.79
2018-05-26T00:20:07.666Z,48.02
2018-05-26T00:22:35.198Z,47.87
2018-05-26T00:25:02.736Z,48.18
2018-05-26T00:27:30.234Z,48.09
2018-05-26T00:29:57.775Z,48.21
2018-05-26T00:32:25.297Z,48.27
2018-05-26T00:34:52.799Z,48.60
2018-05-26T00:37:20.401Z,48.68
2018-05-26T00:39:47.917Z,48.83
2018-05-26T00:42:15.488Z,48.76
2018-05-26T00:44:43.030Z,48.95
2018-05-26T00:47:10.565Z,48.95
2018-05-26T00:49:38.328Z,48.94
2018-05-26T00:52:06.204Z,49.03
2018-05-26T00:54:33.714Z,49.07
2018-05-26T00:57:01.247Z,48.94
2018-05-26T00:59:28.838Z,49.12
2018-05-26T01:01:56.329Z,49.13
2018-05-26T01:04:23.888Z,49.33
2018-05-26T01:06:51.419Z,49.36
2018-05-26T01:09:18.950Z,49.41
2018-05-26T01:11:46.467Z,49.42
2018-05-26T01:14:14.025Z,49.67
2018-05-26T01:16:41.551Z,49.55
2018-05-26T01:19:09.071Z,49.74
2018-05-26T01:21:36.615Z,49.94
2018-05-26T01:24:04.130Z,49.87
2018-05-26T01:26:31.969Z,49.69
2018-05-26T01:28:59.505Z,49.95
2018-05-26T01:31:27.023Z,50.11
2018-05-26T01:33:54.545Z,49.77
2018-05-26T01:36:22.094Z,49.88
2018-05-26T01:38:56.301Z,50.25
2018-05-26T01:41:23.819Z,50.29
2018-05-26T01:43:51.349Z,50.51
2018-05-26T01:46:18.859Z,50.71
2018-05-26T01:48:46.401Z,50.71
2018-05-26T01:51:14.071Z,50.73
2018-05-26T01:53:41.601Z,50.98
2018-05-26T01:56:09.444Z,51.01
2018-05-26T01:58:36.998Z,51.11
2018-05-26T02:01:04.508Z,51.11
2018-05-26T02:03:32.044Z,51.15
2018-05-26T02:05:59.546Z,51.29
2018-05-26T02:08:27.091Z,51.42
2018-05-26T02:10:54.594Z,51.57
2018-05-26T02:13:22.153Z,51.53
2018-05-26T02:15:49.685Z,51.78
2018-05-26T02:18:17.304Z,52.08
2018-05-26T02:20:44.830Z,51.94
2018-05-26T02:23:12.359Z,51.94
2018-05-26T02:25:39.961Z,52.06
2018-05-26T02:28:07.507Z,52.02
2018-05-26T02:30:35.065Z,52.01
2018-05-26T02:33:02.596Z,52.01
2018-05-26T02:35:30.118Z,52.26
2018-05-26T02:37:57.661Z,52.27
2018-05-26T02:40:25.531Z,52.35
2018-05-26T02:42:53.075Z,52.16
2018-05-26T02:45:20.614Z,52.15
2018-05-26T02:47:48.122Z,52.39
2018-05-26T02:50:15.662Z,52.50
2018-05-26T02:52:43.164Z,52.48
2018-05-26T02:55:10.703Z,52.61
2018-05-26T02:57:38.217Z,52.66
2018-05-26T03:00:05.933Z,52.56
2018-05-26T03:02:33.487Z,52.68
2018-05-26T03:05:06.443Z,52.47
2018-05-26T03:07:39.771Z,52.42
2018-05-26T03:10:12.899Z,52.49
2018-05-26T03:12:46.016Z,52.64
2018-05-26T03:15:12.987Z,52.49
2018-05-26T03:17:41.236Z,52.44
2018-05-26T03:20:08.790Z,52.71
2018-05-26T03:22:36.305Z,52.72
2018-05-26T03:25:03.978Z,52.49
2018-05-26T03:27:31.519Z,52.84
2018-05-26T03:29:59.080Z,52.64
2018-05-26T03:32:26.642Z,52.56
2018-05-26T03:34:54.178Z,52.74
2018-05-26T03:37:21.686Z,52.84
2018-05-26T03:39:49.210Z,52.62
2018-05-26T03:42:16.731Z,52.66
2018-05-26T03:44:44.294Z,52.93
2018-05-26T03:47:11.822Z,52.99
2018-05-26T03:49:39.464Z,53.16
2018-05-26T03:52:08.451Z,53.48
2018-05-26T03:54:47.817Z,53.50
2018-05-26T03:57:27.543Z,53.29
2018-05-26T04:00:17.748Z,53.35
2018-05-26T04:02:45.295Z,53.49
2018-05-26T04:05:13.966Z,53.77
2018-05-26T04:07:41.492Z,53.66
2018-05-26T04:10:09.106Z,53.60
2018-05-26T04:12:36.621Z,53.71
2018-05-26T04:15:04.162Z,53.54
2018-05-26T04:17:31.690Z,53.63
2018-05-26T04:19:59.228Z,53.74
2018-05-26T04:22:26.736Z,53.95
2018-05-26T04:24:54.487Z,53.97
2018-05-26T04:27:22.001Z,53.66
2018-05-26T04:29:49.518Z,53.65
2018-05-26T04:32:17.036Z,53.81
2018-05-26T04:34:44.755Z,53.73
2018-05-26T04:37:12.563Z,53.88
2018-05-26T04:39:40.095Z,54.08
2018-05-26T04:42:07.609Z,53.97
2018-05-26T04:44:35.151Z,54.21
2018-05-26T04:47:02.662Z,54.23
2018-05-26T04:49:30.185Z,54.22
2018-05-26T04:51:58.036Z,54.17
2018-05-26T04:54:25.564Z,54.46
2018-05-26T04:56:53.090Z,54.36
2018-05-26T04:59:20.609Z,54.34
2018-05-26T05:01:48.152Z,54.30
2018-05-26T05:04:15.672Z,54.34
2018-05-26T05:06:43.194Z,54.26
2018-05-26T05:09:10.721Z,54.28
2018-05-26T05:11:38.274Z,54.19
2018-05-26T05:14:06.077Z,54.45
2018-05-26T05:16:34.483Z,54.42
2018-05-26T05:19:02.124Z,54.40
2018-05-26T05:21:29.676Z,54.54
2018-05-26T05:23:57.451Z,54.50
2018-05-26T05:26:25.028Z,54.14
2018-05-26T05:28:52.525Z,54.18
2018-05-26T05:31:20.092Z,53.96
2018-05-26T05:33:47.641Z,53.90
2018-05-26T05:36:15.174Z,53.68
2018-05-26T05:38:42.688Z,53.49
2018-05-26T05:41:10.269Z,53.47
2018-05-26T05:43:37.777Z,53.70
2018-05-26T05:46:05.311Z,53.65
2018-05-26T05:48:32.840Z,53.50
2018-05-26T05:51:00.364Z,53.19
2018-05-26T05:53:27.921Z,53.43
2018-05-26T05:55:55.491Z,53.34
2018-05-26T05:58:23.018Z,53.58
2018-05-26T06:00:50.699Z,53.57
2018-05-26T06:03:18.228Z,53.71
2018-05-26T06:05:45.754Z,53.84
2018-05-26T06:08:13.303Z,53.68
2018-05-26T06:10:40.833Z,53.73
2018-05-26T06:13:08.363Z,54.07
2018-05-26T06:15:35.898Z,53.60
2018-05-26T06:18:03.405Z,53.62
2018-05-26T06:20:30.940Z,53.57
2018-05-26T06:22:58.602Z,52.72
2018-05-26T06:25:26.145Z,53.44
2018-05-26T06:27:53.669Z,53.27
2018-05-26T06:30:21.264Z,52.44
2018-05-26T06:32:48.772Z,52.18
2018-05-26T06:35:16.303Z,50.50
2018-05-26T06:37:43.878Z,50.79
2018-05-26T06:40:11.357Z,50.79
2018-05-26T06:42:38.890Z,49.74
2018-05-26T06:45:07.233Z,48.76
2018-05-26T06:47:34.767Z,48.44
2018-05-26T06:50:02.301Z,48.26
2018-05-26T06:52:29.838Z,47.01
2018-05-26T06:54:57.393Z,45.90
2018-05-26T06:57:24.972Z,44.94
2018-05-26T06:59:52.511Z,44.80
2018-05-26T07:02:20.079Z,43.69
2018-05-26T07:04:48.062Z,43.43
2018-05-26T07:07:15.604Z,41.64
2018-05-26T07:09:43.488Z,41.63
2018-05-26T07:12:11.036Z,41.10
2018-05-26T07:14:38.554Z,39.57
2018-05-26T07:17:06.101Z,38.45
2018-05-26T07:19:33.638Z,37.77
2018-05-26T07:22:01.170Z,37.19
2018-05-26T07:24:28.689Z,37.05
2018-05-26T07:26:56.221Z,36.99
2018-05-26T07:29:23.742Z,36.63
2018-05-26T07:31:51.474Z,35.44
2018-05-26T07:34:19.153Z,35.79
2018-05-26T07:36:46.798Z,34.85
2018-05-26T07:39:15.124Z,34.96
2018-05-26T07:41:42.733Z,35.66
2018-05-26T07:44:10.259Z,35.28
2018-05-26T07:46:37.823Z,36.06
2018-05-26T07:49:05.342Z,36.41
2018-05-26T07:51:32.870Z,37.36
2018-05-26T07:54:00.726Z,36.55
2018-05-26T07:56:28.299Z,36.93
2018-05-26T07:58:56.132Z,37.09
2018-05-26T08:01:23.710Z,36.75
2018-05-26T08:03:51.337Z,35.56
2018-05-26T08:06:19.232Z,34.89
2018-05-26T08:08:46.765Z,34.71
2018-05-26T08:11:14.306Z,33.44
2018-05-26T08:13:41.887Z,31.95
2018-05-26T08:16:09.457Z,33.32
2018-05-26T08:18:36.953Z,30.07
2018-05-26T08:21:04.471Z,31.09
2018-05-26T08:23:32.345Z,28.89
2018-05-26T08:25:59.925Z,28.65
2018-05-26T08:28:27.842Z,29.18
2018-05-26T08:30:55.453Z,29.07
2018-05-26T08:33:22.992Z,27.83
2018-05-26T08:35:50.530Z,28.10
2018-05-26T08:38:18.045Z,28.29
2018-05-26T08:40:45.570Z,27.89
2018-05-26T08:43:13.131Z,27.18
2018-05-26T08:45:40.642Z,25.68
2018-05-26T08:48:08.172Z,26.08
2018-05-26T08:50:35.702Z,24.85
2018-05-26T08:53:03.238Z,25.11
2018-05-26T08:55:30.940Z,25.61
2018-05-26T08:57:58.474Z,26.12
2018-05-26T09:00:25.982Z,26.52
2018-05-26T09:02:53.659Z,25.76
2018-05-26T09:05:21.171Z,26.60
2018-05-26T09:07:48.696Z,26.95
2018-05-26T09:10:16.249Z,27.05
2018-05-26T09:12:43.789Z,26.55
2018-05-26T09:15:11.296Z,26.63
2018-05-26T09:17:38.814Z,26.86
2018-05-26T09:20:06.356Z,28.02
2018-05-26T09:22:33.872Z,27.28
2018-05-26T09:25:01.411Z,27.59
2018-05-26T09:27:29.004Z,27.27
2018-05-26T09:29:56.528Z,27.50
2018-05-26T09:32:24.061Z,28.80
2018-05-26T09:34:51.578Z,30.03
2018-05-26T09:37:19.105Z,30.33
2018-05-26T09:39:46.647Z,30.80
2018-05-26T09:42:14.169Z,31.07
2018-05-26T09:44:42.498Z,32.23
2018-05-26T09:47:10.083Z,32.29
2018-05-26T09:49:37.589Z,33.49
2018-05-26T09:52:05.116Z,34.20
2018-05-26T09:54:32.919Z,34.28
2018-05-26T09:57:00.809Z,33.35
2018-05-26T09:59:28.573Z,34.17
2018-05-26T10:01:56.139Z,33.63
2018-05-26T10:04:23.703Z,33.65
2018-05-26T10:06:51.235Z,34.01
2018-05-26T10:09:19.442Z,34.44
2018-05-26T10:11:46.996Z,33.64
2018-05-26T10:14:14.648Z,33.22
2018-05-26T10:16:42.500Z,31.12
2018-05-26T10:19:10.029Z,31.73
2018-05-26T10:21:37.569Z,32.49
2018-05-26T10:24:05.509Z,32.25
2018-05-26T10:26:33.005Z,32.07
2018-05-26T10:29:00.554Z,32.27
2018-05-26T10:31:28.052Z,32.34
2018-05-26T10:33:55.847Z,32.36
2018-05-26T10:36:23.383Z,32.95
2018-05-26T10:38:51.372Z,31.16
2018-05-26T10:41:19.013Z,31.24
2018-05-26T10:43:46.657Z,31.39
2018-05-26T10:46:26.145Z,32.66
2018-05-26T10:48:54.010Z,33.18
2018-05-26T10:51:22.319Z,32.39
2018-05-26T10:53:49.882Z,32.25
2018-05-26T10:56:17.411Z,31.05
2018-05-26T10:58:45.051Z,30.99
2018-05-26T11:01:12.557Z,30.58
2018-05-26T11:03:40.091Z,31.05
2018-05-26T11:06:07.618Z,31.13
2018-05-26T11:08:35.175Z,30.85
2018-05-26T11:11:02.695Z,31.54
2018-05-26T11:13:30.285Z,29.87
2018-05-26T11:15:57.792Z,31.31
2018-05-26T11:18:25.345Z,30.45
2018-05-26T11:20:52.886Z,30.65
2018-05-26T11:23:20.525Z,30.84
2018-05-26T11:25:48.055Z,30.55
2018-05-26T11:28:15.618Z,31.05
2018-05-26T11:30:43.148Z,30.68
2018-05-26T11:33:10.709Z,29.53
2018-05-26T11:35:38.225Z,28.79
2018-05-26T11:38:05.766Z,29.47
2018-05-26T11:40:33.790Z,29.23
2018-05-26T11:43:01.355Z,28.13
2018-05-26T11:45:28.878Z,27.03
2018-05-26T11:47:56.492Z,26.99
2018-05-26T11:50:24.074Z,27.32
2018-05-26T11:52:51.906Z,26.70
2018-05-26T11:55:19.774Z,25.58
2018-05-26T11:57:47.780Z,24.36
2018-05-26T12:00:15.329Z,23.51
2018-05-26T12:02:42.843Z,21.79
2018-05-26T12:05:10.378Z,20.30
2018-05-26T12:07:37.936Z,18.25
2018-05-26T12:10:05.464Z,15.73
2018-05-26T12:12:32.995Z,14.86
2018-05-26T12:15:00.525Z,14.36
2018-05-26T12:17:28.043Z,12.77
2018-05-26T12:19:55.591Z,12.49
2018-05-26T12:22:23.121Z,11.87
2018-05-26T12:24:50.757Z,13.36
2018-05-26T12:27:18.274Z,15.14
2018-05-26T12:29:45.875Z,15.86
2018-05-26T12:32:13.393Z,16.18
2018-05-26T12:34:41.196Z,17.12
2018-05-26T12:37:08.719Z,16.23
2018-05-26T12:39:36.283Z,17.29
2018-05-26T12:42:03.875Z,17.23
2018-05-26T12:44:31.709Z,14.61
2018-05-26T12:46:59.291Z,13.08
2018-05-26T12:52:00.494Z,15.07
2018-05-26T12:54:28.401Z,18.06
2018-05-26T12:56:56.011Z,18.91
2018-05-26T12:59:23.590Z,16.58
2018-05-26T13:01:51.135Z,14.30
2018-05-26T13:04:18.679Z,12.83
2018-05-26T13:06:46.218Z,11.26
2018-05-26T13:09:13.852Z,10.70
2018-05-26T13:11:41.354Z,10.83
2018-05-26T13:14:09.203Z,10.12
2018-05-26T13:16:36.884Z,11.21
2018-05-26T13:19:04.406Z,14.20
2018-05-26T13:21:31.938Z,17.31
2018-05-26T13:23:59.516Z,18.44
2018-05-26T13:26:27.032Z,18.14
2018-05-26T13:28:54.547Z,16.15
2018-05-26T13:31:22.134Z,15.26
2018-05-26T13:33:49.675Z,16.64
2018-05-26T13:36:17.206Z,15.97
2018-05-26T13:38:44.718Z,15.52
2018-05-26T13:41:12.264Z,12.70
2018-05-26T13:43:39.795Z,11.73
2018-05-26T13:46:07.325Z,11.57
2018-05-26T13:48:34.835Z,10.36
2018-05-26T13:51:02.449Z,10.03
2018-05-26T13:53:30.125Z,9.62
2018-05-26T13:55:57.622Z,9.72
2018-05-26T13:58:25.349Z,9.49
2018-05-26T14:00:52.894Z,12.02
2018-05-26T14:03:20.433Z,14.61
2018-05-26T14:05:47.981Z,16.87
2018-05-26T14:08:15.477Z,19.26
2018-05-26T14:10:42.998Z,20.67
2018-05-26T14:13:10.498Z,20.57
2018-05-26T14:15:38.314Z,18.42
2018-05-26T14:18:05.821Z,17.26
2018-05-26T14:20:33.364Z,18.60
2018-05-26T14:23:00.920Z,20.02
2018-05-26T14:25:28.758Z,21.88
2018-05-26T14:27:56.319Z,24.37
2018-05-26T14:30:23.882Z,25.89
2018-05-26T14:32:51.424Z,27.37
2018-05-26T14:35:19.003Z,29.29
2018-05-26T14:37:46.512Z,30.62
2018-05-26T14:40:14.331Z,31.46
2018-05-26T14:42:41.937Z,32.44
2018-05-26T14:45:09.968Z,33.02
2018-05-26T14:47:37.483Z,33.35
2018-05-26T14:50:05.121Z,33.11
2018-05-26T14:52:32.606Z,32.49
2018-05-26T14:55:00.213Z,32.43
2018-05-26T14:57:27.795Z,32.57
2018-05-26T14:59:55.353Z,32.90
2018-05-26T15:02:22.871Z,32.77
2018-05-26T15:04:50.403Z,32.81
2018-05-26T15:07:17.951Z,32.44
2018-05-26T15:09:45.473Z,32.61
2018-05-26T15:12:13.009Z,32.58
2018-05-26T15:14:40.537Z,32.81
2018-05-26T15:17:08.062Z,33.00
2018-05-26T15:19:35.810Z,33.29
2018-05-26T15:22:03.355Z,33.17
2018-05-26T15:24:30.921Z,33.35
2018-05-26T15:26:58.437Z,33.61
2018-05-26T15:29:25.966Z,33.63
2018-05-26T15:31:53.824Z,33.54
2018-05-26T15:34:21.340Z,33.58
2018-05-26T15:36:48.888Z,33.25
2018-05-26T15:39:16.412Z,33.80
2018-05-26T15:41:43.937Z,33.98
2018-05-26T15:44:11.441Z,33.91
2018-05-26T15:46:38.968Z,33.98
2018-05-26T15:49:06.480Z,34.26
2018-05-26T15:51:34.034Z,34.54
2018-05-26T15:54:01.631Z,34.78
2018-05-26T15:56:29.431Z,35.14
2018-05-26T15:58:57.003Z,35.83
2018-05-26T16:01:24.550Z,36.54
2018-05-26T16:03:52.060Z,37.16
2018-05-26T16:06:19.907Z,37.10
2018-05-26T16:08:47.428Z,37.38
2018-05-26T16:11:14.992Z,37.40
2018-05-26T16:13:42.526Z,37.80
2018-05-26T16:16:10.067Z,37.58
2018-05-26T16:18:37.602Z,37.57
2018-05-26T16:21:05.133Z,37.28
2018-05-26T16:23:32.710Z,37.03
2018-05-26T16:26:00.251Z,36.35
2018-05-26T16:28:27.810Z,36.67
2018-05-26T16:30:55.686Z,36.26
2018-05-26T16:33:23.190Z,36.46
2018-05-26T16:35:50.722Z,36.61
2018-05-26T16:38:18.223Z,36.63
2018-05-26T16:40:45.780Z,36.84
2018-05-26T16:43:13.301Z,36.73
2018-05-26T16:45:40.841Z,37.33
2018-05-26T16:48:08.569Z,37.37
2018-05-26T16:50:36.089Z,37.53
2018-05-26T16:53:03.622Z,37.31
2018-05-26T16:55:31.144Z,37.66
2018-05-26T16:57:58.713Z,37.92
2018-05-26T17:00:26.232Z,37.92
2018-05-26T17:02:53.778Z,37.81
2018-05-26T17:05:21.394Z,37.73
2018-05-26T17:07:49.059Z,38.00
2018-05-26T17:10:16.614Z,37.13
2018-05-26T17:12:44.146Z,36.99
2018-05-26T17:15:11.666Z,37.42
2018-05-26T17:17:39.210Z,37.57
2018-05-26T17:20:06.739Z,37.40
2018-05-26T17:22:34.294Z,37.50
2018-05-26T17:25:01.818Z,37.76
2018-05-26T17:27:29.687Z,38.03
2018-05-26T17:29:57.303Z,38.36
2018-05-26T17:32:25.228Z,38.14
2018-05-26T17:34:52.774Z,38.44
2018-05-26T17:37:20.315Z,37.89
2018-05-26T17:39:47.820Z,37.87
2018-05-26T17:42:15.660Z,38.09
2018-05-26T17:44:43.327Z,37.91
2018-05-26T17:47:10.878Z,38.21
2018-05-26T17:49:38.480Z,38.43
2018-05-26T17:52:06.041Z,38.38
2018-05-26T17:54:33.783Z,38.10
2018-05-26T17:57:01.318Z,37.89
2018-05-26T17:59:28.882Z,37.96
2018-05-26T18:01:56.458Z,37.88
2018-05-26T18:04:24.866Z,38.08
2018-05-26T18:06:52.527Z,37.99
2018-05-26T18:09:20.394Z,38.10
2018-05-26T18:11:47.921Z,38.40
2018-05-26T18:14:15.705Z,38.56
2018-05-26T18:16:43.311Z,38.64
2018-05-26T18:19:10.848Z,38.37
2018-05-26T18:21:38.508Z,38.64
2018-05-26T18:24:06.047Z,38.72
2018-05-26T18:26:33.580Z,39.00
2018-05-26T18:29:01.107Z,39.38
2018-05-26T18:31:28.737Z,39.38
2018-05-26T18:33:56.339Z,39.67
2018-05-26T18:36:23.904Z,39.54
2018-05-26T18:38:51.470Z,39.69
2018-05-26T18:41:19.766Z,40.10
2018-05-26T18:43:47.426Z,40.31
2018-05-26T18:46:15.010Z,40.57
2018-05-26T18:48:42.654Z,40.44
2018-05-26T18:51:14.507Z,40.79
2018-05-26T18:53:42.304Z,40.76
2018-05-26T18:56:09.927Z,40.89
2018-05-26T18:58:37.477Z,41.02
2018-05-26T19:01:05.016Z,40.87
2018-05-26T19:03:32.529Z,41.01
2018-05-26T19:06:00.090Z,41.34
2018-05-26T19:08:28.183Z,41.78
2018-05-26T19:10:55.707Z,42.42
2018-05-26T19:13:23.251Z,43.21
2018-05-26T19:15:52.820Z,43.95
2018-05-26T19:18:20.394Z,44.25
2018-05-26T19:20:48.227Z,45.40
2018-05-26T19:23:15.871Z,45.88
2018-05-26T19:25:43.381Z,47.29
2018-05-26T19:28:11.459Z,47.66
2018-05-26T19:30:38.976Z,47.88
2018-05-26T19:33:06.565Z,48.36
2018-05-26T19:35:34.417Z,48.62
2018-05-26T19:38:01.976Z,48.49
2018-05-26T19:40:29.477Z,49.07
2018-05-26T19:42:57.425Z,49.31
2018-05-26T19:45:24.989Z,49.67
2018-05-26T19:47:54.907Z,49.95
2018-05-26T19:50:22.432Z,50.26
2018-05-26T19:52:50.322Z,50.47
2018-05-26T19:55:17.825Z,50.34
2018-05-26T19:57:45.368Z,50.53
2018-05-26T20:00:12.870Z,50.73
2018-05-26T20:02:40.753Z,50.78
2018-05-26T20:05:08.928Z,50.62
2018-05-26T20:07:36.531Z,50.79
2018-05-26T20:10:04.072Z,50.91
2018-05-26T20:12:31.649Z,51.19
2018-05-26T20:14:59.213Z,51.22
2018-05-26T20:17:27.037Z,51.38
2018-05-26T20:19:54.579Z,51.54
2018-05-26T20:22:22.143Z,51.63
2018-05-26T20:24:49.680Z,52.05
2018-05-26T20:27:17.290Z,51.91
2018-05-26T20:29:44.853Z,52.15
2018-05-26T20:32:12.378Z,51.94
2018-05-26T20:34:39.917Z,52.26
2018-05-26T20:37:07.436Z,52.50
2018-05-26T20:39:34.974Z,52.64
2018-05-26T20:42:02.550Z,52.70
2018-05-26T20:44:30.170Z,52.77
2018-05-26T20:46:57.736Z,52.84
2018-05-26T20:49:25.305Z,52.98
2018-05-26T20:51:52.825Z,52.80
2018-05-26T20:54:20.376Z,52.81
2018-05-26T20:56:48.011Z,53.00
2018-05-26T20:59:15.578Z,52.75
2018-05-26T21:01:43.139Z,52.63
2018-05-26T21:04:10.690Z,52.66
2018-05-26T21:06:38.413Z,52.72
2018-05-26T21:09:05.942Z,52.74
2018-05-26T21:11:33.474Z,52.95
2018-05-26T21:14:01.242Z,53.00
2018-05-26T21:16:28.751Z,52.99
2018-05-26T21:18:56.310Z,53.06
2018-05-26T21:21:23.857Z,53.17
2018-05-26T21:23:51.563Z,53.44
2018-05-26T21:26:19.077Z,53.64
2018-05-26T21:28:46.655Z,53.79
2018-05-26T21:31:14.233Z,53.81
2018-05-26T21:33:41.877Z,53.98
2018-05-26T21:36:09.499Z,54.12
2018-05-26T21:38:37.107Z,54.14
2018-05-26T21:41:04.749Z,54.30
2018-05-26T21:43:32.305Z,54.50
2018-05-26T21:45:59.855Z,54.54
2018-05-26T21:48:28.510Z,54.81
2018-05-26T21:50:56.125Z,55.11
2018-05-26T21:53:23.664Z,55.49
2018-05-26T21:55:51.520Z,55.61
2018-05-26T21:58:19.284Z,55.68
2018-05-26T22:00:46.805Z,55.88
2018-05-26T22:03:14.305Z,55.98
2018-05-26T22:05:41.876Z,56.14
2018-05-26T22:08:09.401Z,56.24
2018-05-26T22:10:36.928Z,56.32
2018-05-26T22:13:04.482Z,56.50
2018-05-26T22:15:32.041Z,56.52
2018-05-26T22:17:59.560Z,56.68
2018-05-26T22:20:27.103Z,56.66
2018-05-26T22:22:54.611Z,56.65
2018-05-26T22:25:22.167Z,56.70
2018-05-26T22:27:49.673Z,56.82
2018-05-26T22:30:17.201Z,56.94
2018-05-26T22:32:44.711Z,57.25
2018-05-26T22:35:12.592Z,57.36
2018-05-26T22:37:40.117Z,57.50
2018-05-26T22:40:07.920Z,57.69
2018-05-26T22:42:36.357Z,57.62
2018-05-26T22:45:03.886Z,57.39
2018-05-26T22:47:31.728Z,57.31
2018-05-26T22:49:59.491Z,57.06
2018-05-26T22:52:27.006Z,57.31
2018-05-26T22:54:54.532Z,57.29
2018-05-26T22:57:22.050Z,57.26
2018-05-26T22:59:49.595Z,57.21
2018-05-26T23:02:17.141Z,57.24
2018-05-26T23:04:44.907Z,57.28
2018-05-26T23:07:12.482Z,57.37
2018-05-26T23:09:39.981Z,57.43
2018-05-26T23:12:07.504Z,57.72
2018-05-26T23:14:35.014Z,57.59
2018-05-26T23:17:02.572Z,57.57
2018-05-26T23:19:30.101Z,57.43
2018-05-26T23:21:57.633Z,57.50
2018-05-26T23:24:25.151Z,57.70
2018-05-26T23:26:52.707Z,58.04
2018-05-26T23:29:20.219Z,58.07
2018-05-26T23:31:47.754Z,58.41
2018-05-26T23:34:15.284Z,58.54
2018-05-26T23:36:42.802Z,58.47
2018-05-26T23:39:10.609Z,58.43
2018-05-26T23:41:38.215Z,58.54
2018-05-26T23:44:05.732Z,58.62
2018-05-26T23:46:33.276Z,58.34
2018-05-26T23:49:00.793Z,58.38
2018-05-26T23:51:28.318Z,58.80
2018-05-26T23:53:56.174Z,58.97
2018-05-26T23:56:23.681Z,59.23
2018-05-26T23:58:51.179Z,59.26
